Time;durP1;ratioP1;P1;durP2;ratioP2;P2;SDS_P1;SDS_P2;PMS_P1;PMS_P2;Temp;Humidity;BMP_temperature;BMP_pressure;BME280_temperature;BME280_humidity;BME280_pressure;Samples;Min_cycle;Max_cycle;Signal;HPM_P1;HPM_P2
2021/09/20 00:00:35;;;;;;;6.03;3.17;;;18.80;76.90;;;;;;5021138;28;20025;-73
2021/09/20 00:03:00;;;;;;;5.60;3.20;;;18.80;76.80;;;;;;5029956;28;20483;-74
2021/09/20 00:05:26;;;;;;;5.55;3.03;;;18.90;76.90;;;;;;5016828;28;20124;-74
2021/09/20 00:07:51;;;;;;;5.25;3.03;;;18.80;76.80;;;;;;5013005;28;20376;-74
2021/09/20 00:10:17;;;;;;;5.72;3.33;;;18.80;76.80;;;;;;5011570;28;20525;-74
2021/09/20 00:12:43;;;;;;;5.15;2.92;;;18.80;76.80;;;;;;5012980;28;20038;-74
2021/09/20 00:15:10;;;;;;;5.43;3.03;;;18.80;76.80;;;;;;5024185;28;20025;-74
2021/09/20 00:17:36;;;;;;;6.60;3.10;;;18.80;76.80;;;;;;5019432;28;20029;-74
2021/09/20 00:20:03;;;;;;;5.90;2.90;;;18.80;76.80;;;;;;5031045;28;20071;-74
2021/09/20 00:22:29;;;;;;;5.78;3.03;;;18.80;76.90;;;;;;5032477;28;20715;-74
2021/09/20 00:24:54;;;;;;;5.18;2.90;;;18.80;77.30;;;;;;5030995;28;20025;-74
2021/09/20 00:27:20;;;;;;;6.15;2.95;;;18.80;76.80;;;;;;5021579;28;20698;-74
2021/09/20 00:29:45;;;;;;;6.78;3.25;;;18.80;76.90;;;;;;5031112;28;20064;-74
2021/09/20 00:32:11;;;;;;;6.55;3.30;;;18.70;76.80;;;;;;5028159;28;20523;-74
2021/09/20 00:34:37;;;;;;;5.15;2.97;;;18.80;76.90;;;;;;5011468;28;20434;-75
2021/09/20 00:37:02;;;;;;;5.75;3.00;;;18.80;77.00;;;;;;5017931;28;20042;-75
2021/09/20 00:39:28;;;;;;;5.30;3.05;;;18.80;77.10;;;;;;5012501;28;20147;-75
2021/09/20 00:41:54;;;;;;;7.63;3.10;;;18.80;77.10;;;;;;5011157;28;20722;-75
2021/09/20 00:44:20;;;;;;;5.32;2.65;;;18.80;77.30;;;;;;5011090;28;20026;-75
2021/09/20 00:46:45;;;;;;;5.40;2.78;;;18.80;77.30;;;;;;5033357;28;20026;-74
2021/09/20 00:49:11;;;;;;;5.97;2.92;;;18.80;77.30;;;;;;5031405;28;20062;-75
2021/09/20 00:51:36;;;;;;;8.40;2.70;;;18.80;77.40;;;;;;5012347;28;20476;-74
2021/09/20 00:54:02;;;;;;;6.25;3.10;;;18.80;77.40;;;;;;5011354;28;20045;-75
2021/09/20 00:56:29;;;;;;;6.03;2.90;;;18.80;77.50;;;;;;5012530;28;20032;-74
2021/09/20 00:58:56;;;;;;;6.15;2.83;;;18.80;77.50;;;;;;5011046;28;20041;-75
2021/09/20 01:01:22;;;;;;;6.35;3.00;;;18.80;77.60;;;;;;5012218;28;20104;-75
2021/09/20 01:03:47;;;;;;;5.85;2.83;;;18.80;77.50;;;;;;5012314;28;20060;-74
2021/09/20 01:06:13;;;;;;;6.15;2.83;;;18.80;77.50;;;;;;5012414;28;20551;-74
2021/09/20 01:08:38;;;;;;;5.80;2.70;;;18.80;77.60;;;;;;5026283;28;20501;-75
2021/09/20 01:11:04;;;;;;;8.23;2.95;;;18.80;77.60;;;;;;5031929;28;20026;-75
2021/09/20 01:13:30;;;;;;;5.38;2.80;;;18.80;77.70;;;;;;5031952;28;20102;-75
2021/09/20 01:15:55;;;;;;;5.28;2.88;;;18.80;77.70;;;;;;5026892;28;20029;-74
2021/09/20 01:18:21;;;;;;;5.60;2.85;;;18.80;77.70;;;;;;5016157;28;20022;-74
2021/09/20 01:20:48;;;;;;;5.18;2.80;;;18.80;77.70;;;;;;5014613;28;20030;-75
2021/09/20 01:23:13;;;;;;;5.38;2.83;;;18.80;77.80;;;;;;5014810;28;20120;-74
2021/09/20 01:25:39;;;;;;;4.70;2.80;;;18.80;78.30;;;;;;5014775;28;20117;-74
2021/09/20 01:28:05;;;;;;;6.47;2.80;;;18.80;77.90;;;;;;5031479;28;20033;-74
2021/09/20 01:30:31;;;;;;;5.43;3.00;;;18.80;77.90;;;;;;5018062;28;20517;-74
2021/09/20 01:32:57;;;;;;;5.80;2.67;;;18.80;77.90;;;;;;5014719;28;20076;-74
2021/09/20 01:35:25;;;;;;;5.05;2.65;;;18.80;78.00;;;;;;5014468;28;20073;-74
2021/09/20 01:37:50;;;;;;;4.95;2.75;;;18.80;77.90;;;;;;5015790;28;20466;-74
2021/09/20 01:40:17;;;;;;;5.35;2.75;;;18.80;77.90;;;;;;5027947;28;20022;-74
2021/09/20 01:42:43;;;;;;;5.40;2.70;;;18.80;77.90;;;;;;5034285;28;20034;-74
2021/09/20 01:45:10;;;;;;;5.05;2.80;;;18.80;77.90;;;;;;5035402;28;20103;-74
2021/09/20 01:47:36;;;;;;;6.70;3.10;;;18.80;77.90;;;;;;5035187;28;20075;-76
2021/09/20 01:50:03;;;;;;;5.25;3.08;;;18.80;78.10;;;;;;5015197;28;20018;-74
2021/09/20 01:52:29;;;;;;;4.55;2.67;;;18.80;78.10;;;;;;5022738;28;20025;-74
2021/09/20 01:54:55;;;;;;;4.65;2.60;;;18.80;78.00;;;;;;5035136;28;20479;-74
2021/09/20 01:57:23;;;;;;;5.43;2.97;;;18.80;78.00;;;;;;5033925;28;20048;-75
2021/09/20 01:59:49;;;;;;;5.80;3.10;;;18.70;78.00;;;;;;5033597;28;20549;-74
2021/09/20 02:02:15;;;;;;;5.15;3.03;;;18.80;78.10;;;;;;5034902;28;20047;-74
2021/09/20 02:04:41;;;;;;;5.32;2.95;;;18.80;78.10;;;;;;5033652;28;20113;-74
2021/09/20 02:07:06;;;;;;;4.97;2.70;;;18.80;78.10;;;;;;5030398;28;20025;-74
2021/09/20 02:09:32;;;;;;;5.20;2.65;;;18.80;78.20;;;;;;5033410;28;20021;-74
2021/09/20 02:11:57;;;;;;;6.18;2.90;;;18.80;78.10;;;;;;5033388;28;20051;-74
2021/09/20 02:14:23;;;;;;;4.55;2.50;;;18.80;78.30;;;;;;5033570;28;20021;-74
2021/09/20 02:16:49;;;;;;;4.38;2.55;;;18.80;78.10;;;;;;5033083;28;20026;-75
2021/09/20 02:19:14;;;;;;;5.28;2.85;;;18.80;78.20;;;;;;5034655;28;20505;-74
2021/09/20 02:21:40;;;;;;;4.65;2.60;;;18.80;78.20;;;;;;5034509;28;20497;-74
2021/09/20 02:24:06;;;;;;;4.15;2.50;;;18.80;78.40;;;;;;5034727;28;20037;-74
2021/09/20 02:26:31;;;;;;;5.45;2.88;;;18.80;78.20;;;;;;5032668;28;20028;-74
2021/09/20 02:28:57;;;;;;;6.90;3.00;;;18.80;78.20;;;;;;5034484;28;20040;-74
2021/09/20 02:31:23;;;;;;;5.35;2.70;;;18.80;78.20;;;;;;5033002;28;20075;-74
2021/09/20 02:33:48;;;;;;;4.85;2.80;;;18.70;78.20;;;;;;5033238;28;20075;-74
2021/09/20 02:36:14;;;;;;;6.50;2.80;;;18.70;78.30;;;;;;5030022;28;20018;-75
2021/09/20 02:38:40;;;;;;;5.32;2.85;;;18.70;78.30;;;;;;5014586;28;20419;-74
2021/09/20 02:41:06;;;;;;;4.57;2.60;;;18.80;78.50;;;;;;5023933;28;20022;-74
2021/09/20 02:43:31;;;;;;;5.60;2.72;;;18.70;78.30;;;;;;5014670;28;20538;-74
2021/09/20 02:45:57;;;;;;;4.72;2.70;;;18.70;78.40;;;;;;5014339;28;20034;-74
2021/09/20 02:48:23;;;;;;;5.03;2.67;;;18.70;78.30;;;;;;5017133;28;20025;-75
2021/09/20 02:50:48;;;;;;;5.30;2.72;;;18.70;78.50;;;;;;5034008;28;20041;-74
2021/09/20 02:53:14;;;;;;;4.45;2.53;;;18.70;78.20;;;;;;5034163;28;20100;-74
2021/09/20 02:55:40;;;;;;;4.93;2.63;;;18.70;78.30;;;;;;5032913;28;20030;-74
2021/09/20 02:58:06;;;;;;;6.07;3.10;;;18.70;78.50;;;;;;5034116;28;20026;-74
2021/09/20 03:00:31;;;;;;;4.50;2.47;;;18.70;78.40;;;;;;5023302;28;20475;-75
2021/09/20 03:02:57;;;;;;;4.72;2.70;;;18.70;78.60;;;;;;5031297;28;20025;-74
2021/09/20 03:05:22;;;;;;;5.95;2.90;;;18.70;78.40;;;;;;5024778;28;20484;-74
2021/09/20 03:07:48;;;;;;;4.95;2.80;;;18.70;78.60;;;;;;5018070;28;20045;-74
2021/09/20 03:10:13;;;;;;;4.47;2.60;;;18.70;78.50;;;;;;5028451;28;20075;-74
2021/09/20 03:12:39;;;;;;;4.95;2.70;;;18.70;78.40;;;;;;5033920;28;20045;-74
2021/09/20 03:15:06;;;;;;;4.63;2.33;;;18.70;78.40;;;;;;5033483;28;20430;-74
2021/09/20 03:17:31;;;;;;;5.20;3.05;;;18.70;78.50;;;;;;5028056;28;20022;-74
2021/09/20 03:19:58;;;;;;;5.55;2.88;;;18.70;79.10;;;;;;5020518;28;20032;-73
2021/09/20 03:22:24;;;;;;;5.40;2.50;;;18.70;78.60;;;;;;5027915;28;20474;-74
2021/09/20 03:24:50;;;;;;;4.22;2.30;;;18.70;78.70;;;;;;5013737;28;20026;-75
2021/09/20 03:27:16;;;;;;;4.43;2.55;;;18.70;78.50;;;;;;5020695;28;20116;-74
2021/09/20 03:29:41;;;;;;;5.20;3.03;;;18.70;78.60;;;;;;5032381;28;20025;-74
2021/09/20 03:32:07;;;;;;;4.53;2.63;;;18.70;78.60;;;;;;5017801;28;20115;-73
2021/09/20 03:34:32;;;;;;;5.18;2.58;;;18.70;78.60;;;;;;5012853;28;20022;-74
2021/09/20 03:36:58;;;;;;;5.13;2.67;;;18.70;78.60;;;;;;5031698;28;20483;-74
2021/09/20 03:39:23;;;;;;;4.03;2.42;;;18.70;78.70;;;;;;5030435;28;20029;-74
2021/09/20 03:41:49;;;;;;;6.22;2.70;;;18.70;78.60;;;;;;5022040;28;20100;-74
2021/09/20 03:44:14;;;;;;;4.85;2.75;;;18.70;78.60;;;;;;5033112;28;20029;-74
2021/09/20 03:46:40;;;;;;;4.25;2.55;;;18.70;78.70;;;;;;5031869;28;20014;-74
2021/09/20 03:49:05;;;;;;;4.93;2.72;;;18.70;78.70;;;;;;5033071;28;20092;-75
2021/09/20 03:51:31;;;;;;;5.35;3.13;;;18.70;78.70;;;;;;5032816;28;20478;-74
2021/09/20 03:53:56;;;;;;;4.25;2.40;;;18.70;78.70;;;;;;5033220;28;20021;-74
2021/09/20 03:56:22;;;;;;;4.72;2.97;;;18.70;78.60;;;;;;5015219;28;20030;-75
2021/09/20 03:58:47;;;;;;;4.80;2.67;;;18.70;78.80;;;;;;5011916;28;20029;-74
2021/09/20 04:01:13;;;;;;;4.60;2.60;;;18.70;78.70;;;;;;5012933;28;20033;-73
2021/09/20 04:03:38;;;;;;;7.03;2.60;;;18.70;78.70;;;;;;5011922;28;20026;-74
2021/09/20 04:06:04;;;;;;;4.65;2.72;;;18.70;78.80;;;;;;5012076;28;20022;-73
2021/09/20 04:08:30;;;;;;;6.07;2.70;;;18.70;79.30;;;;;;5034167;28;20025;-74
2021/09/20 04:10:57;;;;;;;4.55;2.60;;;18.70;78.60;;;;;;5032530;28;20056;-75
2021/09/20 04:13:23;;;;;;;4.88;2.25;;;18.70;78.80;;;;;;5015784;28;20022;-75
2021/09/20 04:15:53;;;;;;;4.25;2.50;;;18.70;78.80;;;;;;5018233;28;20026;-74
2021/09/20 04:18:24;;;;;;;4.50;2.45;;;18.70;78.80;;;;;;5019321;28;20032;-75
2021/09/20 04:20:51;;;;;;;4.60;2.33;;;18.70;78.90;;;;;;5032135;28;20045;-75
2021/09/20 04:23:21;;;;;;;5.78;2.90;;;18.70;78.70;;;;;;5031265;28;20075;-75
2021/09/20 04:25:48;;;;;;;6.07;2.90;;;18.70;78.80;;;;;;5031157;28;20486;-74
2021/09/20 04:28:13;;;;;;;4.65;2.42;;;18.70;78.80;;;;;;5024756;28;20159;-73
2021/09/20 04:30:43;;;;;;;13.27;3.50;;;18.70;79.10;;;;;;5061160;22;20021;-76
2021/09/20 04:33:10;;;;;;;6.63;2.70;;;18.70;78.80;;;;;;4998889;28;20030;-77
2021/09/20 04:35:35;;;;;;;6.35;2.70;;;18.80;79.10;;;;;;5014495;28;20061;-77
2021/09/20 04:38:01;;;;;;;6.45;2.60;;;18.70;78.70;;;;;;4998358;28;20394;-77
2021/09/20 04:40:26;;;;;;;4.55;2.70;;;18.70;78.70;;;;;;5000402;28;20110;-77
2021/09/20 04:42:52;;;;;;;5.53;2.80;;;18.70;78.80;;;;;;5027769;28;20044;-78
2021/09/20 04:45:18;;;;;;;6.10;2.90;;;18.70;78.90;;;;;;5029405;28;20066;-77
2021/09/20 04:47:43;;;;;;;6.53;2.83;;;18.70;78.80;;;;;;5026560;28;20368;-77
2021/09/20 04:50:09;;;;;;;6.47;3.00;;;18.70;78.60;;;;;;4991547;28;20109;-76
2021/09/20 04:52:34;;;;;;;6.93;2.78;;;18.70;79.00;;;;;;4999987;28;20024;-76
2021/09/20 04:55:00;;;;;;;5.70;2.78;;;18.70;78.90;;;;;;5025100;28;20034;-76
2021/09/20 04:57:25;;;;;;;7.93;2.92;;;18.70;79.10;;;;;;5019714;28;20050;-76
2021/09/20 04:59:51;;;;;;;8.05;2.72;;;18.70;79.10;;;;;;5009674;28;20046;-75
2021/09/20 05:02:16;;;;;;;5.65;2.92;;;18.80;79.50;;;;;;5009031;28;20018;-76
2021/09/20 05:04:42;;;;;;;5.90;2.63;;;18.80;79.20;;;;;;5010764;28;20391;-76
2021/09/20 05:07:07;;;;;;;5.82;2.80;;;18.80;79.10;;;;;;5008049;28;20364;-77
2021/09/20 05:09:33;;;;;;;5.93;2.80;;;18.80;78.80;;;;;;5010556;28;20076;-75
2021/09/20 05:11:58;;;;;;;9.35;3.90;;;18.90;78.80;;;;;;5009640;28;20022;-75
2021/09/20 05:14:24;;;;;;;12.40;4.40;;;18.90;77.40;;;;;;5023354;28;20536;-75
2021/09/20 05:16:52;;;;;;;11.20;5.07;;;18.90;76.10;;;;;;5020962;28;20744;-75
2021/09/20 05:19:18;;;;;;;9.15;4.32;;;18.90;75.40;;;;;;5032890;28;20030;-76
2021/09/20 05:21:43;;;;;;;9.38;4.68;;;18.80;74.80;;;;;;5045025;28;20026;-76
2021/09/20 05:24:09;;;;;;;7.68;4.60;;;18.80;74.20;;;;;;5029679;28;20033;-76
2021/09/20 05:26:34;;;;;;;8.25;4.25;;;18.80;73.60;;;;;;5028547;28;20029;-77
2021/09/20 05:29:00;;;;;;;9.48;4.93;;;18.80;73.60;;;;;;5022562;28;20471;-76
2021/09/20 05:31:25;;;;;;;7.53;4.65;;;18.70;73.10;;;;;;5009748;28;20113;-76
2021/09/20 05:33:51;;;;;;;8.15;4.38;;;18.70;73.00;;;;;;5024768;28;20079;-76
2021/09/20 05:36:16;;;;;;;7.65;4.35;;;18.70;72.20;;;;;;5025187;28;20030;-76
2021/09/20 05:38:42;;;;;;;8.18;4.60;;;18.70;72.40;;;;;;5008385;28;20044;-77
2021/09/20 05:41:07;;;;;;;7.75;4.50;;;18.60;72.40;;;;;;5004704;28;20034;-77
2021/09/20 05:43:33;;;;;;;7.03;4.40;;;18.60;72.40;;;;;;4989597;28;20026;-75
2021/09/20 05:45:59;;;;;;;7.32;4.60;;;18.60;72.20;;;;;;5004903;28;20369;-76
2021/09/20 05:48:24;;;;;;;7.35;4.60;;;18.60;71.90;;;;;;5005203;28;20031;-75
2021/09/20 05:50:50;;;;;;;7.05;4.18;;;18.60;71.80;;;;;;4990152;28;20403;-76
2021/09/20 05:53:16;;;;;;;7.00;4.20;;;18.60;71.80;;;;;;5034838;28;20033;-79
2021/09/20 05:55:41;;;;;;;7.05;4.43;;;18.60;72.50;;;;;;5034792;28;20025;-76
2021/09/20 05:58:07;;;;;;;8.23;4.57;;;18.60;72.30;;;;;;5033455;28;20075;-75
2021/09/20 06:00:33;;;;;;;8.07;4.28;;;18.70;72.50;;;;;;5016241;28;20025;-79
2021/09/20 06:02:59;;;;;;;6.47;3.78;;;18.70;72.50;;;;;;5024387;28;20269;-78
2021/09/20 06:05:25;;;;;;;6.53;3.85;;;18.70;72.60;;;;;;5048270;28;20029;-76
2021/09/20 06:07:50;;;;;;;9.65;3.65;;;18.70;73.20;;;;;;5047409;28;20037;-76
2021/09/20 06:10:17;;;;;;;7.88;3.92;;;18.70;73.70;;;;;;5033460;28;20037;-76
2021/09/20 06:12:44;;;;;;;12.52;3.65;;;18.70;74.10;;;;;;5026862;28;20025;-76
2021/09/20 06:15:11;;;;;;;8.45;3.70;;;18.60;74.50;;;;;;5010597;28;20033;-76
2021/09/20 06:17:37;;;;;;;8.52;3.65;;;18.70;74.70;;;;;;5026720;28;20037;-77
2021/09/20 06:20:05;;;;;;;21.67;4.85;;;18.70;74.80;;;;;;5026211;28;20553;-76
2021/09/20 06:22:31;;;;;;;6.32;3.50;;;18.70;74.90;;;;;;5026476;28;20057;-76
2021/09/20 06:24:59;;;;;;;7.43;3.10;;;18.70;75.60;;;;;;5012189;28;20036;-77
2021/09/20 06:27:25;;;;;;;6.63;4.03;;;18.70;75.20;;;;;;5025202;28;20026;-77
2021/09/20 06:29:50;;;;;;;7.55;3.78;;;18.70;75.30;;;;;;5010867;28;20092;-77
2021/09/20 06:32:16;;;;;;;7.03;3.40;;;18.70;75.40;;;;;;5009312;28;20510;-76
2021/09/20 06:34:41;;;;;;;6.72;3.25;;;18.70;75.50;;;;;;5025663;28;20056;-76
2021/09/20 06:37:07;;;;;;;6.60;3.40;;;18.70;75.70;;;;;;5010759;28;20025;-76
2021/09/20 06:39:33;;;;;;;6.35;3.50;;;18.70;75.80;;;;;;5010883;28;20034;-77
2021/09/20 06:42:01;;;;;;;7.05;3.25;;;18.70;75.80;;;;;;5025608;28;20040;-75
2021/09/20 06:44:27;;;;;;;5.47;3.25;;;18.70;75.90;;;;;;5025769;28;20406;-77
2021/09/20 06:46:52;;;;;;;6.90;3.53;;;18.60;76.00;;;;;;5010338;28;20100;-76
2021/09/20 06:49:21;;;;;;;7.45;3.53;;;18.70;76.10;;;;;;5025820;28;20241;-77
2021/09/20 06:51:46;;;;;;;6.45;3.55;;;18.70;76.10;;;;;;5010134;28;20033;-78
2021/09/20 06:54:12;;;;;;;5.25;3.30;;;18.70;76.30;;;;;;5009240;28;20034;-77
2021/09/20 06:56:38;;;;;;;6.85;3.47;;;18.60;76.20;;;;;;5025545;28;20494;-77
2021/09/20 06:59:04;;;;;;;6.88;3.35;;;18.70;76.30;;;;;;5026057;28;20026;-76
2021/09/20 07:01:30;;;;;;;6.10;3.60;;;18.70;76.30;;;;;;5009219;28;20199;-76
2021/09/20 07:03:55;;;;;;;6.50;3.25;;;18.70;76.30;;;;;;5025495;28;20054;-76
2021/09/20 07:06:21;;;;;;;7.85;3.58;;;18.70;76.30;;;;;;5025627;28;20407;-76
2021/09/20 07:08:47;;;;;;;6.18;3.20;;;18.70;76.40;;;;;;5025120;28;20034;-77
2021/09/20 07:11:12;;;;;;;8.00;3.20;;;18.70;76.40;;;;;;5025801;28;20030;-76
2021/09/20 07:13:38;;;;;;;7.68;3.35;;;18.70;76.30;;;;;;5024804;28;20380;-75
2021/09/20 07:16:04;;;;;;;6.97;3.80;;;18.70;76.40;;;;;;5025403;28;20509;-76
2021/09/20 07:18:29;;;;;;;8.02;3.90;;;18.70;76.40;;;;;;5010258;28;20026;-75
2021/09/20 07:20:55;;;;;;;7.03;3.58;;;18.70;76.30;;;;;;5024855;28;20032;-78
2021/09/20 07:23:20;;;;;;;8.05;3.35;;;18.70;76.30;;;;;;5025253;28;20037;-78
2021/09/20 07:25:46;;;;;;;6.82;3.65;;;18.70;76.40;;;;;;5025220;28;20037;-78
2021/09/20 07:28:13;;;;;;;6.82;3.50;;;18.70;76.30;;;;;;5009412;28;20060;-76
2021/09/20 07:30:39;;;;;;;7.00;3.70;;;18.70;76.30;;;;;;5024396;28;20034;-75
2021/09/20 07:33:05;;;;;;;6.70;3.38;;;18.80;76.40;;;;;;5025057;28;20172;-76
2021/09/20 07:35:30;;;;;;;6.10;3.35;;;18.80;76.20;;;;;;5009431;28;20471;-76
2021/09/20 07:37:56;;;;;;;8.07;3.47;;;18.80;76.30;;;;;;5025331;28;20033;-75
2021/09/20 07:40:24;;;;;;;7.25;3.58;;;18.80;76.40;;;;;;5024421;28;20408;-77
2021/09/20 07:42:51;;;;;;;6.63;3.40;;;18.80;76.20;;;;;;5024501;28;20026;-75
2021/09/20 07:45:17;;;;;;;7.55;3.95;;;18.80;76.30;;;;;;5024807;28;20396;-77
2021/09/20 07:47:43;;;;;;;6.88;3.78;;;18.80;76.20;;;;;;5024909;28;20108;-78
2021/09/20 07:50:10;;;;;;;7.43;3.88;;;18.80;76.10;;;;;;5009055;28;20499;-75
2021/09/20 07:52:36;;;;;;;7.32;3.08;;;18.80;76.00;;;;;;5023191;28;20022;-76
2021/09/20 07:55:04;;;;;;;7.13;3.20;;;18.80;76.00;;;;;;5023843;28;20116;-75
2021/09/20 07:57:30;;;;;;;6.60;3.20;;;18.80;76.00;;;;;;5008454;28;20029;-76
2021/09/20 07:59:55;;;;;;;5.70;2.80;;;18.80;75.90;;;;;;5006618;28;20395;-77
2021/09/20 08:02:21;;;;;;;7.53;3.53;;;18.80;75.70;;;;;;5008182;28;20076;-76
2021/09/20 08:04:46;;;;;;;7.47;3.00;;;18.80;75.80;;;;;;5007654;28;20033;-76
2021/09/20 08:07:12;;;;;;;7.20;3.50;;;18.80;75.70;;;;;;5008744;28;20104;-76
2021/09/20 08:09:37;;;;;;;7.80;3.20;;;18.90;75.70;;;;;;5023073;28;20030;-76
2021/09/20 08:12:03;;;;;;;7.85;3.47;;;18.90;75.70;;;;;;5023286;28;20025;-76
2021/09/20 08:14:29;;;;;;;7.65;3.15;;;18.90;75.60;;;;;;5022991;28;20099;-77
2021/09/20 08:16:54;;;;;;;6.10;3.20;;;18.90;75.60;;;;;;5023758;28;20397;-77
2021/09/20 08:19:20;;;;;;;7.70;3.45;;;18.90;75.40;;;;;;5023302;28;20034;-78
2021/09/20 08:21:45;;;;;;;7.40;3.22;;;18.90;75.50;;;;;;5023237;28;20041;-76
2021/09/20 08:24:11;;;;;;;6.43;3.10;;;18.90;75.20;;;;;;5022692;28;20036;-79
2021/09/20 08:26:37;;;;;;;6.05;3.08;;;18.90;75.20;;;;;;5007928;28;20033;-77
2021/09/20 08:29:03;;;;;;;6.30;2.92;;;18.90;75.50;;;;;;5023235;28;20358;-77
2021/09/20 08:31:30;;;;;;;7.22;2.83;;;18.90;75.10;;;;;;5007895;28;20125;-78
2021/09/20 08:33:55;;;;;;;6.55;3.33;;;19.00;75.10;;;;;;5023230;28;20030;-77
2021/09/20 08:36:21;;;;;;;7.25;3.10;;;19.00;75.20;;;;;;5009240;28;20030;-76
2021/09/20 08:38:47;;;;;;;5.97;3.05;;;19.00;75.20;;;;;;5023832;28;20033;-75
2021/09/20 08:41:13;;;;;;;6.78;2.83;;;19.00;75.30;;;;;;5007178;28;20036;-75
2021/09/20 08:43:39;;;;;;;5.93;2.90;;;19.00;75.00;;;;;;5023058;28;20158;-76
2021/09/20 08:46:06;;;;;;;4.78;2.40;;;19.00;74.80;;;;;;5006520;28;20128;-77
2021/09/20 08:48:40;;;;;;;4.68;2.33;;;19.00;74.80;;;;;;5023274;28;20499;-76
2021/09/20 08:51:06;;;;;;;5.70;2.75;;;19.00;74.70;;;;;;5007018;28;20048;-78
2021/09/20 08:53:32;;;;;;;5.90;2.45;;;19.00;74.60;;;;;;5024461;28;20030;-77
2021/09/20 08:55:58;;;;;;;5.38;2.47;;;19.00;74.60;;;;;;5023838;28;20034;-76
2021/09/20 08:58:25;;;;;;;4.75;2.20;;;19.00;74.60;;;;;;5023988;28;20065;-76
2021/09/20 09:00:51;;;;;;;6.32;2.47;;;19.00;74.30;;;;;;5023339;28;20033;-77
2021/09/20 09:03:24;;;;;;;7.15;2.95;;;19.10;74.30;;;;;;5024155;28;20088;-76
2021/09/20 09:05:50;;;;;;;5.32;2.53;;;19.10;74.10;;;;;;5023703;28;20050;-78
2021/09/20 09:08:20;;;;;;;5.88;2.35;;;19.10;74.20;;;;;;5023483;28;20044;-77
2021/09/20 09:11:08;;;;;;;5.20;2.35;;;19.10;74.10;;;;;;5008372;28;20026;-77
2021/09/20 09:13:37;;;;;;;5.25;2.53;;;19.10;74.30;;;;;;5023710;28;20022;-76
2021/09/20 09:16:17;;;;;;;5.18;2.60;;;19.10;73.90;;;;;;5022764;28;20037;-77
2021/09/20 09:19:10;;;;;;;5.03;2.25;;;19.20;73.70;;;;;;5007506;28;20454;-77
2021/09/20 09:21:41;;;;;;;3.30;1.90;;;19.20;73.70;;;;;;5007615;28;20497;-75
2021/09/20 09:24:14;;;;;;;5.57;2.40;;;19.10;73.70;;;;;;5006251;28;20041;-76
2021/09/20 09:26:57;;;;;;;6.22;2.45;;;19.20;73.70;;;;;;5022511;28;20041;-76
2021/09/20 09:29:23;;;;;;;4.93;2.17;;;19.20;73.70;;;;;;5022584;28;20026;-76
2021/09/20 09:32:02;;;;;;;4.60;2.30;;;19.20;73.50;;;;;;5022163;28;20038;-77
2021/09/20 09:34:30;;;;;;;4.90;2.38;;;19.20;73.50;;;;;;5005929;28;20054;-77
2021/09/20 09:37:07;;;;;;;4.80;2.42;;;19.30;73.30;;;;;;5025293;28;20117;-76
2021/09/20 09:39:33;;;;;;;5.38;2.67;;;19.30;73.40;;;;;;5011474;28;20036;-76
2021/09/20 09:41:59;;;;;;;4.15;2.20;;;19.30;73.10;;;;;;5010871;28;20412;-77
2021/09/20 09:44:33;;;;;;;4.25;2.22;;;19.20;73.20;;;;;;5010072;28;20068;-76
2021/09/20 09:46:59;;;;;;;4.40;1.88;;;19.30;73.00;;;;;;5009848;28;20450;-76
2021/09/20 09:49:26;;;;;;;3.95;2.15;;;19.30;73.20;;;;;;5011919;28;20463;-76
2021/09/20 09:51:52;;;;;;;4.55;2.10;;;19.40;72.90;;;;;;5026674;28;20042;-77
2021/09/20 09:54:26;;;;;;;2.90;1.70;;;19.40;72.90;;;;;;5017973;28;20025;-76
2021/09/20 09:57:21;;;;;;;3.92;1.98;;;19.30;73.20;;;;;;4993659;28;20058;-76
2021/09/20 10:00:09;;;;;;;3.80;1.85;;;19.20;73.30;;;;;;4991812;28;20030;-76
2021/09/20 10:02:37;;;;;;;5.47;1.90;;;19.20;73.20;;;;;;4994678;28;20456;-76
2021/09/20 10:05:12;;;;;;;4.68;2.08;;;19.20;73.90;;;;;;4996426;28;20030;-76
2021/09/20 10:07:44;;;;;;;3.53;1.80;;;19.20;73.30;;;;;;4995353;28;20022;-76
2021/09/20 10:10:17;;;;;;;4.97;1.95;;;19.20;73.50;;;;;;4994769;28;20115;-76
2021/09/20 10:12:44;;;;;;;3.90;1.70;;;19.20;73.80;;;;;;4994423;28;20027;-76
2021/09/20 10:15:12;;;;;;;4.90;1.90;;;19.10;73.40;;;;;;4994888;28;20054;-77
2021/09/20 10:17:38;;;;;;;4.53;1.70;;;19.10;73.80;;;;;;4994552;28;20085;-77
2021/09/20 10:20:06;;;;;;;4.15;2.00;;;19.20;73.70;;;;;;4994346;28;20037;-76
2021/09/20 10:22:32;;;;;;;4.03;2.00;;;19.10;73.60;;;;;;4994431;28;20030;-76
2021/09/20 10:24:59;;;;;;;5.35;2.00;;;19.20;73.90;;;;;;5010624;28;20085;-77
2021/09/20 10:27:27;;;;;;;3.08;1.90;;;19.20;73.60;;;;;;4995736;28;20101;-76
2021/09/20 10:29:57;;;;;;;5.55;2.10;;;19.10;74.10;;;;;;4994271;28;20022;-76
2021/09/20 10:32:27;;;;;;;4.88;1.83;;;19.10;73.60;;;;;;5065242;22;20437;-75
2021/09/20 10:35:12;;;;;;;3.80;1.63;;;19.10;73.60;;;;;;5018383;28;20024;-75
2021/09/20 10:37:38;;;;;;;3.95;1.83;;;19.10;73.70;;;;;;5033735;28;20025;-75
2021/09/20 10:40:10;;;;;;;3.08;1.70;;;19.10;73.60;;;;;;5032527;28;20483;-75
2021/09/20 10:42:46;;;;;;;5.43;1.60;;;19.10;73.80;;;;;;5032708;28;20047;-75
2021/09/20 10:45:33;;;;;;;4.13;1.80;;;19.10;73.70;;;;;;5032797;28;20026;-75
2021/09/20 10:48:14;;;;;;;3.83;1.63;;;19.10;73.60;;;;;;5031586;28;20033;-75
2021/09/20 10:50:52;;;;;;;3.42;1.33;;;19.10;73.60;;;;;;5033515;28;20053;-75
2021/09/20 10:53:19;;;;;;;3.97;1.73;;;19.10;73.60;;;;;;5033749;28;20032;-75
2021/09/20 10:56:02;;;;;;;3.38;1.70;;;19.10;73.60;;;;;;5033739;28;20052;-75
2021/09/20 10:58:50;;;;;;;3.35;1.60;;;19.10;73.60;;;;;;5032376;28;20033;-75
2021/09/20 11:01:15;;;;;;;3.08;1.40;;;19.10;73.50;;;;;;5033283;28;20426;-75
2021/09/20 11:03:50;;;;;;;4.40;1.63;;;19.10;73.50;;;;;;5033540;28;20042;-74
2021/09/20 11:06:32;;;;;;;4.32;1.60;;;19.10;73.40;;;;;;5032080;28;20119;-75
2021/09/20 11:08:58;;;;;;;3.72;1.52;;;19.10;73.50;;;;;;5033485;28;20026;-76
2021/09/20 11:11:42;;;;;;;4.38;1.70;;;19.10;73.50;;;;;;5031889;28;20028;-75
2021/09/20 11:14:17;;;;;;;2.40;1.40;;;19.10;73.50;;;;;;5032163;28;20394;-76
2021/09/20 11:16:49;;;;;;;2.88;1.63;;;19.10;73.40;;;;;;5031655;28;20118;-76
2021/09/20 11:19:32;;;;;;;3.28;1.50;;;19.10;73.40;;;;;;5032378;28;20025;-76
2021/09/20 11:22:09;;;;;;;2.45;1.30;;;19.10;73.40;;;;;;5032868;28;20018;-76
2021/09/20 11:24:38;;;;;;;3.25;1.80;;;19.00;73.40;;;;;;5031697;28;20033;-76
2021/09/20 11:27:23;;;;;;;4.28;1.83;;;19.00;73.60;;;;;;5031896;28;20394;-76
2021/09/20 11:29:57;;;;;;;2.85;1.63;;;19.00;73.70;;;;;;5032984;28;20533;-75
2021/09/20 11:32:23;;;;;;;2.75;1.50;;;19.00;73.70;;;;;;5031567;28;20029;-75
2021/09/20 11:34:52;;;;;;;3.70;1.52;;;19.00;73.70;;;;;;5031539;28;20052;-76
2021/09/20 11:37:32;;;;;;;2.58;1.40;;;19.00;73.70;;;;;;5031690;28;20379;-76
2021/09/20 11:40:07;;;;;;;2.67;1.50;;;18.90;73.60;;;;;;5031310;28;20022;-75
2021/09/20 11:42:36;;;;;;;4.88;1.60;;;19.00;73.80;;;;;;5031565;28;20033;-75
2021/09/20 11:45:10;;;;;;;2.78;1.40;;;19.00;73.80;;;;;;5031425;28;20026;-75
2021/09/20 11:47:47;;;;;;;3.75;1.60;;;19.00;73.70;;;;;;5032604;28;20029;-75
2021/09/20 11:50:22;;;;;;;3.40;1.40;;;19.00;73.70;;;;;;5031223;28;20033;-76
2021/09/20 11:53:10;;;;;;;3.33;1.50;;;19.00;73.90;;;;;;5031424;28;20018;-76
2021/09/20 11:55:45;;;;;;;3.38;1.50;;;18.90;73.90;;;;;;5032592;28;20029;-75
2021/09/20 11:58:15;;;;;;;2.85;1.50;;;18.90;74.10;;;;;;5032575;28;20029;-75
2021/09/20 12:00:45;;;;;;;2.65;1.40;;;18.90;74.00;;;;;;5032160;28;20025;-75
2021/09/20 12:03:13;;;;;;;2.57;1.30;;;18.90;73.90;;;;;;5031202;28;20052;-75
2021/09/20 12:05:41;;;;;;;2.33;1.40;;;18.90;73.80;;;;;;5032256;28;20025;-75
2021/09/20 12:08:10;;;;;;;2.83;1.45;;;18.90;74.00;;;;;;5031080;28;20467;-75
2021/09/20 12:10:38;;;;;;;4.03;1.50;;;18.90;74.00;;;;;;5030801;28;20021;-75
2021/09/20 12:13:07;;;;;;;3.28;1.50;;;18.90;73.90;;;;;;5030974;28;20116;-75
2021/09/20 12:15:35;;;;;;;3.17;1.40;;;18.90;74.40;;;;;;5032240;28;20163;-75
2021/09/20 12:18:08;;;;;;;2.63;1.30;;;18.90;74.10;;;;;;5030844;28;20030;-75
2021/09/20 12:20:49;;;;;;;2.25;1.13;;;18.90;74.00;;;;;;5030648;28;20505;-75
2021/09/20 12:23:22;;;;;;;2.28;1.13;;;18.90;73.80;;;;;;5030876;28;20026;-74
2021/09/20 12:25:50;;;;;;;2.85;1.30;;;18.90;74.00;;;;;;5032068;28;20108;-75
2021/09/20 12:28:28;;;;;;;2.10;1.30;;;18.90;74.10;;;;;;5032078;28;20021;-75
2021/09/20 12:31:07;;;;;;;3.13;1.42;;;18.90;74.00;;;;;;5031741;28;21009;-75
2021/09/20 12:33:53;;;;;;;2.92;1.40;;;18.90;74.00;;;;;;5030724;28;20053;-75
2021/09/20 12:36:29;;;;;;;2.67;1.50;;;18.90;74.10;;;;;;5030545;28;20033;-76
2021/09/20 12:39:14;;;;;;;2.70;1.60;;;18.90;73.90;;;;;;5030934;28;20435;-75
2021/09/20 12:41:59;;;;;;;3.85;1.60;;;18.90;74.00;;;;;;5030177;28;20037;-76
2021/09/20 12:44:31;;;;;;;2.67;1.30;;;18.90;73.90;;;;;;5031909;28;20391;-75
2021/09/20 12:47:07;;;;;;;2.65;1.42;;;18.90;73.90;;;;;;5031846;28;20033;-73
2021/09/20 12:49:33;;;;;;;2.97;1.55;;;18.90;73.80;;;;;;5031717;28;20474;-75